MOL Dominance — V7OX3 — position and weather

sailwx.info

Track history (hours):
 
Tides and Currents Weather Stations Pressure Air Temp Water Temp Dewpoint Dewpoint Depression Visibility Wind Speed Wind Dir Waves Ship Positions

MOL Dominance

Last reported at 2018-Jan-19 08:31 UTC. Time now 2018-Jan-19 13:33 UTC.
Position N 31°16' E 121°55'.

Length 260 m; draft 10.4 m.

Type: Ship (hazmat cat A). MMSI: 538003180.

Date/timePositionNaut miles runAvg speedWind from/ knotsBaromVisibWave heightAir tempDewpointWater temp
2018-Jan-19 08:31N 31°16' E 121°55'015.5
2018-Jan-19 08:30N 31°16' E 121°54'713.1
2018-Jan-19 07:59N 31°18' E 121°47'12 3.5
2018-Jan-19 04:38N 31°23' E 121°35'0 0.0
2018-Jan-19 04:26N 31°23' E 121°35'0 0.0
2018-Jan-19 03:44N 31°23' E 121°35'0 0.0
2018-Jan-19 03:20N 31°23' E 121°35'0 0.0
2018-Jan-19 02:56N 31°23' E 121°35'0 0.0
2018-Jan-19 02:26N 31°23' E 121°35'0 0.0
2018-Jan-18 21:38N 31°23' E 121°35'0 0.0
2018-Jan-18 21:20N 31°23' E 121°35'0 0.0
2018-Jan-18 20:22N 31°23' E 121°35'0 0.9
2018-Jan-18 20:00N 31°23' E 121°35'11 8.1
2018-Jan-18 18:37N 31°18' E 121°47'2 7.5
2018-Jan-18 18:23N 31°17' E 121°49'3 6.5
2018-Jan-18 17:59N 31°16' E 121°52'3 6.9
2018-Jan-18 17:30N 31°16' E 121°55'5 7.6
2018-Jan-18 16:48N 31°15' E 122°02'1 4.3
2018-Jan-18 16:30N 31°14' E 122°03'3 5.3
2018-Jan-18 16:00N 31°14' E 122°06'3 5.8
2018-Jan-18 15:30N 31°12' E 122°09'4 8.1
2018-Jan-18 15:00N 31°10' E 122°13'5 9.4
2018-Jan-18 14:27N 31°07' E 122°18'3 6.9
2018-Jan-18 13:59N 31°06' E 122°21'2 4.7
2018-Jan-18 13:30N 31°07' E 122°24'1 0.6
2018-Jan-18 12:33N 31°07' E 122°24'0 3.5
2018-Jan-18 12:30N 31°07' E 122°24'3 4.2
2018-Jan-18 11:44N 31°07' E 122°28'  
2018-Jan-12 11:46N 36°01' E 120°14'0 0.0
2018-Jan-12 09:28N 36°01' E 120°14'0 0.0
2018-Jan-12 03:55N 36°01' E 120°14'0 0.0
2018-Jan-12 02:25N 36°01' E 120°14'0 0.0
2018-Jan-12 01:49N 36°01' E 120°14'0 0.0
2018-Jan-12 01:19N 36°01' E 120°14'0 0.0
2018-Jan-12 00:58N 36°01' E 120°14'0 0.1
2018-Jan-12 00:17N 36°01' E 120°13'3 6.5
2018-Jan-11 23:46N 36°02' E 120°17'9 9.6
2018-Jan-11 22:47N 36°00' E 120°29'  
2018-Jan-09 09:42N 24°03' E 118°39'412.0
2018-Jan-09 09:21N 24°01' E 118°36'612.1
2018-Jan-09 08:53N 23°57' E 118°32'  
Track history (hours):
 
Tides and Currents Weather Stations Pressure Air Temp Water Temp Dewpoint Dewpoint Depression Visibility Wind Speed Wind Dir Waves Ship Positions

MOL Dominance

Last reported at 2018-Jan-19 08:31 UTC. Time now 2018-Jan-19 13:33 UTC.
Position N 31°16' E 121°55'.

Length 260 m; draft 10.4 m.

Type: Ship (hazmat cat A). MMSI: 538003180.

Date/timePositionNaut miles runAvg speedWind from/ knotsBaromVisibWave heightAir tempDewpointWater temp
2018-Jan-19 08:31N 31°16' E 121°55'015.5
2018-Jan-19 08:30N 31°16' E 121°54'713.1
2018-Jan-19 07:59N 31°18' E 121°47'12 3.5
2018-Jan-19 04:38N 31°23' E 121°35'0 0.0
2018-Jan-19 04:26N 31°23' E 121°35'0 0.0
2018-Jan-19 03:44N 31°23' E 121°35'0 0.0
2018-Jan-19 03:20N 31°23' E 121°35'0 0.0
2018-Jan-19 02:56N 31°23' E 121°35'0 0.0
2018-Jan-19 02:26N 31°23' E 121°35'0 0.0
2018-Jan-18 21:38N 31°23' E 121°35'0 0.0
2018-Jan-18 21:20N 31°23' E 121°35'0 0.0
2018-Jan-18 20:22N 31°23' E 121°35'0 0.9
2018-Jan-18 20:00N 31°23' E 121°35'11 8.1
2018-Jan-18 18:37N 31°18' E 121°47'2 7.5
2018-Jan-18 18:23N 31°17' E 121°49'3 6.5
2018-Jan-18 17:59N 31°16' E 121°52'3 6.9
2018-Jan-18 17:30N 31°16' E 121°55'5 7.6
2018-Jan-18 16:48N 31°15' E 122°02'1 4.3
2018-Jan-18 16:30N 31°14' E 122°03'3 5.3
2018-Jan-18 16:00N 31°14' E 122°06'3 5.8
2018-Jan-18 15:30N 31°12' E 122°09'4 8.1
2018-Jan-18 15:00N 31°10' E 122°13'5 9.4
2018-Jan-18 14:27N 31°07' E 122°18'3 6.9
2018-Jan-18 13:59N 31°06' E 122°21'2 4.7
2018-Jan-18 13:30N 31°07' E 122°24'1 0.6
2018-Jan-18 12:33N 31°07' E 122°24'0 3.5
2018-Jan-18 12:30N 31°07' E 122°24'3 4.2
2018-Jan-18 11:44N 31°07' E 122°28'  
2018-Jan-12 11:46N 36°01' E 120°14'0 0.0
2018-Jan-12 09:28N 36°01' E 120°14'0 0.0
2018-Jan-12 03:55N 36°01' E 120°14'0 0.0
2018-Jan-12 02:25N 36°01' E 120°14'0 0.0
2018-Jan-12 01:49N 36°01' E 120°14'0 0.0
2018-Jan-12 01:19N 36°01' E 120°14'0 0.0
2018-Jan-12 00:58N 36°01' E 120°14'0 0.1
2018-Jan-12 00:17N 36°01' E 120°13'3 6.5
2018-Jan-11 23:46N 36°02' E 120°17'9 9.6
2018-Jan-11 22:47N 36°00' E 120°29'  
2018-Jan-09 09:42N 24°03' E 118°39'412.0
2018-Jan-09 09:21N 24°01' E 118°36'612.1
2018-Jan-09 08:53N 23°57' E 118°32'  

Dump ship's entire track history